| time (UTC) | temp F | wind direction | speed knots | gust knots | rain 1hr in | rain 24hr in | rain mn in | humidity % | barometer mb |
| 20260504050412 | 44 | 174 | 0.0 | 0.0 | 0.00 | 0.00 | 0.00 | 76 | |
| 20260504045412 | 43 | 174 | 0.0 | 0.0 | 0.00 | 0.00 | 0.00 | 76 | |
| 20260504044342 | 43 | 174 | 0.0 | 0.0 | 0.00 | 0.00 | 0.00 | 76 | |
| 20260504043342 | 44 | 174 | 0.0 | 0.0 | 0.00 | 0.00 | 0.00 | 75 | |
| 20260504042312 | 44 | 174 | 0.0 | 0.0 | 0.00 | 0.00 | 0.00 | 74 | |
| 20260504041312 | 44 | 174 | 0.0 | 0.0 | 0.00 | 0.00 | 0.00 | 74 | |
| 20260504040312 | 44 | 174 | 0.0 | 0.0 | 0.00 | 0.00 | 0.00 | 73 | |
| 20260504035312 | 44 | 174 | 0.0 | 0.0 | 0.00 | 0.00 | 0.00 | 73 | |
| 20260504034242 | 44 | 174 | 0.0 | 0.0 | 0.00 | 0.00 | 0.00 | 72 | |
| 20260504033242 | 45 | 174 | 0.0 | 0.0 | 0.00 | 0.00 | 0.00 | 70 | |
| 20260504032242 | 45 | 174 | 0.0 | 0.0 | 0.00 | 0.00 | 0.00 | 68 | |
| 20260504031242 | 45 | 174 | 0.0 | 0.0 | 0.00 | 0.00 | 0.00 | 68 | |
| 20260504030212 | 46 | 174 | 0.0 | 0.0 | 0.00 | 0.00 | 0.00 | 67 | |
| 20260504025142 | 47 | 174 | 0.0 | 0.0 | 0.00 | 0.00 | 0.00 | 64 | |
| 20260504024142 | 46 | 174 | 0.0 | 0.0 | 0.00 | 0.00 | 0.00 | 64 | |
| 20260504023112 | 47 | 174 | 0.0 | 0.0 | 0.00 | 0.00 | 0.00 | 63 | |
| 20260504022042 | 47 | 174 | 0.0 | 0.0 | 0.00 | 0.00 | 0.00 | 62 | |
| 20260504021012 | 49 | 174 | 0.0 | 0.0 | 0.00 | 0.00 | 0.00 | 60 | |
| 20260504020012 | 49 | 174 | 0.0 | 0.0 | 0.00 | 0.00 | 0.00 | 58 | |
| 20260504015012 | 50 | 174 | 0.0 | 0.0 | 0.00 | 0.00 | 0.00 | 58 | |
| 20260504013942 | 50 | 174 | 0.0 | 0.0 | 0.00 | 0.00 | 0.00 | 57 | |
| 20260504012942 | 51 | 174 | 0.0 | 0.0 | 0.00 | 0.00 | 0.00 | 55 | |
| 20260504011912 | 51 | 174 | 0.0 | 0.0 | 0.00 | 0.00 | 0.00 | 51 | |
| 20260504010912 | 52 | 174 | 0.0 | 0.0 | 0.00 | 0.00 | 0.00 | 51 | |
| 20260504005842 | 51 | 174 | 0.0 | 0.0 | 0.00 | 0.00 | 0.00 | 50 | |
| 20260504004812 | 51 | 174 | 0.0 | 0.0 | 0.00 | 0.00 | 0.00 | 52 | |
| 20260504003742 | 53 | 174 | 0.0 | 0.0 | 0.00 | 0.00 | 0.00 | 52 | |
| 20260504002712 | 54 | 174 | 0.0 | 0.0 | 0.00 | 0.00 | 0.00 | 46 | |
| 20260504001642 | 54 | 174 | 0.0 | 0.0 | 0.00 | 0.00 | 0.00 | 45 | |
| 20260504000612 | 55 | 174 | 0.0 | 0.0 | 0.00 | 0.00 | 0.00 | 44 | |
| 20260503235612 | 55 | 166 | 0.0 | 0.0 | 0.00 | 0.00 | 0.00 | 43 | |
| 20260503234542 | 55 | 200 | 0.9 | 0.0 | 0.00 | 0.00 | 0.00 | 42 | |
| 20260503233512 | 57 | 181 | 0.0 | 0.0 | 0.00 | 0.00 | 0.00 | 42 | |
| 20260503232512 | 56 | 200 | 1.7 | 0.0 | 0.00 | 0.00 | 0.00 | 40 | |
| 20260503231512 | 57 | 188 | 4.3 | 0.0 | 0.00 | 0.00 | 0.00 | 40 | |
| 20260503230512 | 57 | 153 | 2.6 | 0.0 | 0.00 | 0.00 | 0.00 | 39 | |
| 20260503225512 | 59 | 252 | 0.9 | 0.0 | 0.00 | 0.00 | 0.00 | 40 | |
| 20260503224442 | 58 | 124 | 0.0 | 0.0 | 0.00 | 0.00 | 0.00 | 38 | |
| 20260503223412 | 57 | 136 | 1.7 | 0.0 | 0.00 | 0.00 | 0.00 | 38 | |
| 20260503222412 | 59 | 215 | 1.7 | 0.0 | 0.00 | 0.00 | 0.00 | 37 | |
| 20260503221412 | 60 | 193 | 1.7 | 0.0 | 0.00 | 0.00 | 0.00 | 38 | |
| 20260503220412 | 60 | 179 | 1.7 | 0.0 | 0.00 | 0.00 | 0.00 | 36 | |
| 20260503215412 | 58 | 183 | 0.9 | 0.0 | 0.00 | 0.00 | 0.00 | 36 | |
| 20260503214342 | 59 | 122 | 0.9 | 0.0 | 0.00 | 0.00 | 0.00 | 38 | |
| 20260503213342 | 59 | 115 | 0.0 | 0.0 | 0.00 | 0.00 | 0.00 | 39 | |
| 20260503212312 | 58 | 194 | 0.9 | 0.0 | 0.00 | 0.00 | 0.00 | 40 | |
| 20260503211312 | 58 | 188 | 5.2 | 0.0 | 0.00 | 0.00 | 0.00 | 39 | |
| 20260503210312 | 57 | 208 | 7.0 | 0.0 | 0.00 | 0.00 | 0.00 | 38 | |
| 20260503205312 | 58 | 186 | 2.6 | 0.0 | 0.00 | 0.00 | 0.00 | 37 | |
| 20260503204242 | 58 | 200 | 2.6 | 0.0 | 0.00 | 0.00 | 0.00 | 38 | |
| 20260503203242 | 58 | 274 | 0.0 | 0.0 | 0.00 | 0.00 | 0.00 | 38 | |
| 20260503202242 | 57 | 200 | 2.6 | 0.0 | 0.00 | 0.00 | 0.00 | 39 | |
| 20260503201212 | 58 | 255 | 1.7 | 0.0 | 0.00 | 0.00 | 0.00 | 38 | |
| 20260503200212 | 58 | 174 | 2.6 | 0.0 | 0.00 | 0.00 | 0.00 | 39 | |
| 20260503195142 | 57 | 177 | 2.6 | 0.0 | 0.00 | 0.00 | 0.00 | 39 | |
| 20260503194142 | 58 | 169 | 5.2 | 0.0 | 0.00 | 0.00 | 0.00 | 41 | |
| 20260503193142 | 57 | 232 | 4.3 | 0.0 | 0.00 | 0.00 | 0.00 | 40 | |
| 20260503192143 | 57 | 236 | 2.6 | 0.0 | 0.00 | 0.00 | 0.00 | 39 | |
| 20260503191112 | 57 | 217 | 3.5 | 0.0 | 0.00 | 0.00 | 0.00 | 42 | |
| 20260503190113 | 57 | 197 | 3.5 | 0.0 | 0.00 | 0.00 | 0.00 | 40 | |
| 20260503185112 | 56 | 245 | 1.7 | 0.0 | 0.00 | 0.00 | 0.00 | 41 | |
| 20260503184043 | 56 | 193 | 1.7 | 0.0 | 0.00 | 0.00 | 0.00 | 43 | |
| 20260503183043 | 54 | 194 | 1.7 | 0.0 | 0.00 | 0.00 | 0.00 | 43 | |
| 20260503182043 | 55 | 202 | 3.5 | 0.0 | 0.00 | 0.00 | 0.00 | 42 | |
| 20260503181043 | 54 | 197 | 5.2 | 0.0 | 0.00 | 0.00 | 0.00 | 41 | |
| 20260503180013 | 56 | 176 | 2.6 | 0.0 | 0.00 | 0.00 | 0.00 | 44 | |
| 20260503175013 | 54 | 207 | 3.5 | 0.0 | 0.00 | 0.00 | 0.00 | 42 | |
| 20260503173943 | 55 | 207 | 4.3 | 0.0 | 0.00 | 0.00 | 0.00 | 46 | |
| 20260503172943 | 54 | 107 | 0.0 | 0.0 | 0.00 | 0.00 | 0.00 | 47 | |
| 20260503171943 | 54 | 204 | 3.5 | 0.0 | 0.00 | 0.00 | 0.00 | 43 | |
| 20260503170943 | 53 | 263 | 2.6 | 0.0 | 0.00 | 0.00 | 0.00 | 45 | |
| 20260503150843 | 48 | 187 | 1.7 | 0.0 | 0.00 | 0.00 | 0.00 | 54 | |
| 20260503130713 | 43 | 201 | 1.7 | 0.0 | 0.00 | 0.00 | 0.00 | 68 | |
| 20260503110643 | 36 | 214 | 0.0 | 0.0 | 0.00 | 0.00 | 0.00 | 89 | |
| 20260503090513 | 38 | 195 | 0.9 | 0.0 | 0.00 | 0.00 | 0.00 | 83 | |
| 20260503081443 | 38 | 163 | 0.0 | 0.0 | 0.00 | 0.00 | 0.00 | 85 | |
| 20260503080413 | 38 | 170 | 0.0 | 0.0 | 0.00 | 0.00 | 0.00 | 85 | |
| 20260503072343 | 38 | 153 | 0.0 | 0.0 | 0.00 | 0.00 | 0.00 | 87 | |
| 20260503071343 | 38 | 173 | 0.0 | 0.0 | 0.00 | 0.00 | 0.00 | 87 |